Overview Statistics Trail Chart Weather Telemetry Raw packets
 

This is the latest recevied weather packets stored in our database for station/object PU5FJO-13. If no packets are shown the sender has not sent any weather packets the latest 10 day(s).

<< 21 22 23 24 25 26 27 >>
Time Temp. Humidity Pressure Rain* Wind** Luminosity Snow
1777497967 19.44° C 81% 1014.9 hPa - - - -
1777497367 19.44° C 82% 1015.1 hPa - - - -
1777496767 19.44° C 80% 1014.7 hPa - - - -
1777496167 20° C 79% 1014.4 hPa - - - -
1777495569 19.44° C 82% 1014.9 hPa - - - -
1777494967 20° C 82% 1014.6 hPa - - - -
1777494367 20° C 82% 1015.1 hPa - - - -
1777493767 19.44° C 83% 1015.2 hPa - - - -
1777493167 20° C 81% 1014.8 hPa - - - -
1777492567 20° C 80% 1014.4 hPa - - - -
1777491967 19.44° C 84% 1015.1 hPa - - - -
1777491367 20° C 82% 1014.2 hPa - - - -
1777490767 20° C 82% 1013.9 hPa - - - -
1777490167 20.56° C 80% 1014 hPa - - - -
1777489569 20° C 84% 1014.5 hPa - - - -
1777488967 20° C 83% 1014.2 hPa - - - -
1777488367 20.56° C 80% 1013.4 hPa - - - -
1777487767 20.56° C 81% 1013.8 hPa - - - -
1777487167 20° C 83% 1015 hPa - - - -
1777486567 20.56° C 80% 1014.3 hPa - - - -
1777485967 20° C 81% 1014.8 hPa - - - -
1777485367 20.56° C 79% 1014.5 hPa - - - -
1777484767 20.56° C 81% 1014.6 hPa - - - -
1777484167 20° C 81% 1014.9 hPa - - - -
1777483567 20° C 81% 1014.7 hPa - - - -

* Rain since midnight (hover to see other rain measurements)
** Current wind speed in m/s (hover to see current wind gust speed)